sensor_id;sensor_type;location;lat;lon;timestamp;P1;durP1;ratioP1;P2;durP2;ratioP2
11809;SDS011;5962;41.566;23.734;2023-12-07T00:00:41;234.70;;;24.57;;
11809;SDS011;5962;41.566;23.734;2023-12-07T00:03:10;167.33;;;23.77;;
11809;SDS011;5962;41.566;23.734;2023-12-07T00:05:38;140.40;;;24.17;;
11809;SDS011;5962;41.566;23.734;2023-12-07T00:08:08;29.80;;;15.90;;
11809;SDS011;5962;41.566;23.734;2023-12-07T00:10:37;34.30;;;17.63;;
11809;SDS011;5962;41.566;23.734;2023-12-07T00:13:04;26.93;;;16.93;;
11809;SDS011;5962;41.566;23.734;2023-12-07T00:15:34;29.60;;;16.43;;
11809;SDS011;5962;41.566;23.734;2023-12-07T00:18:02;29.27;;;16.33;;
11809;SDS011;5962;41.566;23.734;2023-12-07T00:20:30;31.83;;;18.20;;
11809;SDS011;5962;41.566;23.734;2023-12-07T00:22:58;50.53;;;23.50;;
11809;SDS011;5962;41.566;23.734;2023-12-07T00:25:27;44.77;;;23.57;;
11809;SDS011;5962;41.566;23.734;2023-12-07T00:27:55;56.83;;;26.97;;
11809;SDS011;5962;41.566;23.734;2023-12-07T00:30:23;58.20;;;27.10;;
11809;SDS011;5962;41.566;23.734;2023-12-07T00:32:53;51.83;;;27.67;;
11809;SDS011;5962;41.566;23.734;2023-12-07T00:35:22;49.60;;;28.03;;
11809;SDS011;5962;41.566;23.734;2023-12-07T00:37:50;48.03;;;26.30;;
11809;SDS011;5962;41.566;23.734;2023-12-07T00:40:18;49.33;;;27.47;;
11809;SDS011;5962;41.566;23.734;2023-12-07T00:42:46;32.23;;;20.27;;
11809;SDS011;5962;41.566;23.734;2023-12-07T00:45:15;40.57;;;23.77;;
11809;SDS011;5962;41.566;23.734;2023-12-07T00:47:43;40.47;;;23.33;;
11809;SDS011;5962;41.566;23.734;2023-12-07T00:50:13;39.50;;;24.47;;
11809;SDS011;5962;41.566;23.734;2023-12-07T00:52:42;37.20;;;24.07;;
11809;SDS011;5962;41.566;23.734;2023-12-07T00:55:10;44.23;;;26.17;;
11809;SDS011;5962;41.566;23.734;2023-12-07T00:57:38;45.70;;;25.53;;
11809;SDS011;5962;41.566;23.734;2023-12-07T01:00:07;37.30;;;22.90;;
11809;SDS011;5962;41.566;23.734;2023-12-07T01:02:36;45.73;;;23.43;;
11809;SDS011;5962;41.566;23.734;2023-12-07T01:05:05;32.47;;;19.80;;
11809;SDS011;5962;41.566;23.734;2023-12-07T01:07:35;37.80;;;20.63;;
11809;SDS011;5962;41.566;23.734;2023-12-07T01:10:03;39.37;;;22.33;;
11809;SDS011;5962;41.566;23.734;2023-12-07T01:12:32;32.37;;;20.27;;
11809;SDS011;5962;41.566;23.734;2023-12-07T01:15:02;35.37;;;20.17;;
11809;SDS011;5962;41.566;23.734;2023-12-07T01:17:31;44.03;;;22.30;;
11809;SDS011;5962;41.566;23.734;2023-12-07T01:19:59;36.63;;;20.73;;
11809;SDS011;5962;41.566;23.734;2023-12-07T01:22:27;43.27;;;21.73;;
11809;SDS011;5962;41.566;23.734;2023-12-07T01:24:57;38.27;;;20.50;;
11809;SDS011;5962;41.566;23.734;2023-12-07T01:27:25;40.03;;;20.90;;
11809;SDS011;5962;41.566;23.734;2023-12-07T01:29:53;38.77;;;22.00;;
11809;SDS011;5962;41.566;23.734;2023-12-07T01:32:22;40.10;;;21.03;;
11809;SDS011;5962;41.566;23.734;2023-12-07T01:34:50;43.57;;;22.80;;
11809;SDS011;5962;41.566;23.734;2023-12-07T01:37:18;40.23;;;21.67;;
11809;SDS011;5962;41.566;23.734;2023-12-07T01:39:46;40.10;;;21.53;;
11809;SDS011;5962;41.566;23.734;2023-12-07T01:42:16;43.57;;;22.17;;
11809;SDS011;5962;41.566;23.734;2023-12-07T01:44:44;44.03;;;23.30;;
11809;SDS011;5962;41.566;23.734;2023-12-07T01:47:12;44.17;;;22.20;;
11809;SDS011;5962;41.566;23.734;2023-12-07T01:49:42;41.83;;;22.20;;
11809;SDS011;5962;41.566;23.734;2023-12-07T01:52:10;88.20;;;21.37;;
11809;SDS011;5962;41.566;23.734;2023-12-07T01:54:38;64.17;;;19.43;;
11809;SDS011;5962;41.566;23.734;2023-12-07T01:57:07;49.97;;;20.23;;
11809;SDS011;5962;41.566;23.734;2023-12-07T01:59:37;54.43;;;21.53;;
11809;SDS011;5962;41.566;23.734;2023-12-07T02:02:05;93.43;;;22.37;;
11809;SDS011;5962;41.566;23.734;2023-12-07T02:04:34;86.20;;;22.20;;
11809;SDS011;5962;41.566;23.734;2023-12-07T02:07:02;42.87;;;20.70;;
11809;SDS011;5962;41.566;23.734;2023-12-07T02:09:32;45.87;;;20.97;;
11809;SDS011;5962;41.566;23.734;2023-12-07T02:12:00;35.53;;;18.77;;
11809;SDS011;5962;41.566;23.734;2023-12-07T02:14:28;28.93;;;17.07;;
11809;SDS011;5962;41.566;23.734;2023-12-07T02:17:00;27.07;;;15.80;;
11809;SDS011;5962;41.566;23.734;2023-12-07T02:22:25;27.33;;;14.50;;
11809;SDS011;5962;41.566;23.734;2023-12-07T02:25:03;25.30;;;13.10;;
11809;SDS011;5962;41.566;23.734;2023-12-07T02:27:36;27.03;;;14.60;;
11809;SDS011;5962;41.566;23.734;2023-12-07T02:30:05;27.93;;;15.73;;
11809;SDS011;5962;41.566;23.734;2023-12-07T02:32:35;31.20;;;15.87;;
11809;SDS011;5962;41.566;23.734;2023-12-07T02:35:04;27.00;;;14.67;;
11809;SDS011;5962;41.566;23.734;2023-12-07T02:37:34;25.60;;;14.60;;
11809;SDS011;5962;41.566;23.734;2023-12-07T02:40:07;30.67;;;15.27;;
11809;SDS011;5962;41.566;23.734;2023-12-07T02:42:38;23.23;;;13.73;;
11809;SDS011;5962;41.566;23.734;2023-12-07T02:45:09;25.83;;;14.47;;
11809;SDS011;5962;41.566;23.734;2023-12-07T02:47:38;25.93;;;15.23;;
11809;SDS011;5962;41.566;23.734;2023-12-07T02:50:07;26.40;;;14.60;;
11809;SDS011;5962;41.566;23.734;2023-12-07T02:52:36;24.50;;;13.93;;
11809;SDS011;5962;41.566;23.734;2023-12-07T02:55:05;23.17;;;12.93;;
11809;SDS011;5962;41.566;23.734;2023-12-07T02:57:33;26.03;;;12.10;;
11809;SDS011;5962;41.566;23.734;2023-12-07T03:00:04;23.53;;;12.23;;
11809;SDS011;5962;41.566;23.734;2023-12-07T03:02:33;22.77;;;12.73;;
11809;SDS011;5962;41.566;23.734;2023-12-07T03:05:02;26.17;;;12.90;;
11809;SDS011;5962;41.566;23.734;2023-12-07T03:07:32;26.27;;;13.43;;
11809;SDS011;5962;41.566;23.734;2023-12-07T03:10:01;23.70;;;12.17;;
11809;SDS011;5962;41.566;23.734;2023-12-07T03:12:30;24.57;;;12.33;;
11809;SDS011;5962;41.566;23.734;2023-12-07T03:14:58;29.80;;;11.90;;
11809;SDS011;5962;41.566;23.734;2023-12-07T03:17:28;19.87;;;11.60;;
11809;SDS011;5962;41.566;23.734;2023-12-07T03:19:56;25.00;;;12.57;;
11809;SDS011;5962;41.566;23.734;2023-12-07T03:22:24;44.77;;;12.83;;
11809;SDS011;5962;41.566;23.734;2023-12-07T03:24:53;24.63;;;13.20;;
11809;SDS011;5962;41.566;23.734;2023-12-07T03:27:21;27.10;;;12.50;;
11809;SDS011;5962;41.566;23.734;2023-12-07T03:29:49;21.87;;;12.60;;
11809;SDS011;5962;41.566;23.734;2023-12-07T03:32:18;23.47;;;13.20;;
11809;SDS011;5962;41.566;23.734;2023-12-07T03:34:48;37.47;;;13.80;;
11809;SDS011;5962;41.566;23.734;2023-12-07T03:37:16;37.27;;;12.70;;
11809;SDS011;5962;41.566;23.734;2023-12-07T03:39:44;39.40;;;13.40;;
11809;SDS011;5962;41.566;23.734;2023-12-07T03:42:13;45.73;;;13.43;;
11809;SDS011;5962;41.566;23.734;2023-12-07T03:44:41;79.83;;;14.43;;
11809;SDS011;5962;41.566;23.734;2023-12-07T03:47:10;47.23;;;13.53;;
11809;SDS011;5962;41.566;23.734;2023-12-07T03:49:38;51.63;;;14.23;;
11809;SDS011;5962;41.566;23.734;2023-12-07T03:52:09;77.97;;;16.07;;
11809;SDS011;5962;41.566;23.734;2023-12-07T03:54:37;72.23;;;17.00;;
11809;SDS011;5962;41.566;23.734;2023-12-07T03:57:05;104.37;;;18.37;;
11809;SDS011;5962;41.566;23.734;2023-12-07T03:59:35;52.20;;;16.80;;
11809;SDS011;5962;41.566;23.734;2023-12-07T04:02:04;51.30;;;16.00;;
11809;SDS011;5962;41.566;23.734;2023-12-07T04:04:32;49.93;;;15.83;;
11809;SDS011;5962;41.566;23.734;2023-12-07T04:07:00;24.17;;;14.27;;
11809;SDS011;5962;41.566;23.734;2023-12-07T04:09:31;95.67;;;17.80;;
11809;SDS011;5962;41.566;23.734;2023-12-07T04:11:59;48.67;;;16.33;;
11809;SDS011;5962;41.566;23.734;2023-12-07T04:14:27;66.70;;;17.50;;
11809;SDS011;5962;41.566;23.734;2023-12-07T04:16:55;75.97;;;17.37;;
11809;SDS011;5962;41.566;23.734;2023-12-07T04:19:24;47.87;;;16.80;;
11809;SDS011;5962;41.566;23.734;2023-12-07T04:21:52;48.57;;;14.30;;
11809;SDS011;5962;41.566;23.734;2023-12-07T04:24:20;35.23;;;13.33;;
11809;SDS011;5962;41.566;23.734;2023-12-07T04:26:50;42.63;;;14.80;;
11809;SDS011;5962;41.566;23.734;2023-12-07T04:29:18;43.20;;;14.67;;
11809;SDS011;5962;41.566;23.734;2023-12-07T04:31:46;65.97;;;15.00;;
11809;SDS011;5962;41.566;23.734;2023-12-07T04:34:14;44.00;;;14.33;;
11809;SDS011;5962;41.566;23.734;2023-12-07T04:36:43;49.37;;;15.73;;
11809;SDS011;5962;41.566;23.734;2023-12-07T04:39:11;54.73;;;16.77;;
11809;SDS011;5962;41.566;23.734;2023-12-07T04:41:39;38.50;;;16.30;;
11809;SDS011;5962;41.566;23.734;2023-12-07T04:44:09;88.37;;;18.97;;
11809;SDS011;5962;41.566;23.734;2023-12-07T04:46:37;48.90;;;17.77;;
11809;SDS011;5962;41.566;23.734;2023-12-07T04:49:05;46.97;;;17.47;;
11809;SDS011;5962;41.566;23.734;2023-12-07T04:51:33;48.97;;;17.57;;
11809;SDS011;5962;41.566;23.734;2023-12-07T04:54:02;46.73;;;16.37;;
11809;SDS011;5962;41.566;23.734;2023-12-07T04:56:31;64.77;;;16.83;;
11809;SDS011;5962;41.566;23.734;2023-12-07T04:58:59;57.33;;;16.10;;
11809;SDS011;5962;41.566;23.734;2023-12-07T05:01:28;81.23;;;18.27;;
11809;SDS011;5962;41.566;23.734;2023-12-07T05:03:57;34.13;;;16.23;;
11809;SDS011;5962;41.566;23.734;2023-12-07T05:06:25;44.23;;;17.87;;
11809;SDS011;5962;41.566;23.734;2023-12-07T05:08:53;51.23;;;19.43;;
11809;SDS011;5962;41.566;23.734;2023-12-07T05:11:21;67.73;;;17.43;;
11809;SDS011;5962;41.566;23.734;2023-12-07T05:13:49;59.93;;;18.73;;
11809;SDS011;5962;41.566;23.734;2023-12-07T05:16:18;68.30;;;19.27;;
11809;SDS011;5962;41.566;23.734;2023-12-07T05:18:47;66.27;;;17.50;;
11809;SDS011;5962;41.566;23.734;2023-12-07T05:21:15;63.80;;;16.67;;
11809;SDS011;5962;41.566;23.734;2023-12-07T05:23:43;37.87;;;16.90;;
11809;SDS011;5962;41.566;23.734;2023-12-07T05:26:12;40.17;;;15.70;;
11809;SDS011;5962;41.566;23.734;2023-12-07T05:28:41;44.03;;;15.80;;
11809;SDS011;5962;41.566;23.734;2023-12-07T05:31:15;53.07;;;17.20;;
11809;SDS011;5962;41.566;23.734;2023-12-07T05:33:43;67.00;;;18.47;;
11809;SDS011;5962;41.566;23.734;2023-12-07T05:36:13;47.73;;;18.63;;
11809;SDS011;5962;41.566;23.734;2023-12-07T05:38:42;29.67;;;16.10;;
11809;SDS011;5962;41.566;23.734;2023-12-07T05:41:10;32.70;;;14.77;;
11809;SDS011;5962;41.566;23.734;2023-12-07T05:43:40;33.47;;;15.53;;
11809;SDS011;5962;41.566;23.734;2023-12-07T05:46:09;35.63;;;15.37;;
11809;SDS011;5962;41.566;23.734;2023-12-07T05:48:37;30.23;;;15.43;;
11809;SDS011;5962;41.566;23.734;2023-12-07T05:51:06;34.90;;;18.73;;
11809;SDS011;5962;41.566;23.734;2023-12-07T05:53:42;25.77;;;14.17;;
11809;SDS011;5962;41.566;23.734;2023-12-07T05:56:10;23.47;;;12.73;;
11809;SDS011;5962;41.566;23.734;2023-12-07T05:58:38;23.73;;;13.23;;
11809;SDS011;5962;41.566;23.734;2023-12-07T06:01:07;25.83;;;14.73;;
11809;SDS011;5962;41.566;23.734;2023-12-07T06:03:35;27.83;;;14.47;;
11809;SDS011;5962;41.566;23.734;2023-12-07T06:06:04;24.97;;;13.10;;
11809;SDS011;5962;41.566;23.734;2023-12-07T06:08:32;27.03;;;14.13;;
11809;SDS011;5962;41.566;23.734;2023-12-07T06:11:02;32.13;;;15.00;;
11809;SDS011;5962;41.566;23.734;2023-12-07T06:13:31;24.03;;;13.53;;
11809;SDS011;5962;41.566;23.734;2023-12-07T06:16:00;43.20;;;15.80;;
11809;SDS011;5962;41.566;23.734;2023-12-07T06:18:29;22.67;;;14.20;;
11809;SDS011;5962;41.566;23.734;2023-12-07T06:20:57;22.90;;;13.83;;
11809;SDS011;5962;41.566;23.734;2023-12-07T06:23:26;25.73;;;13.63;;
11809;SDS011;5962;41.566;23.734;2023-12-07T06:25:54;25.57;;;14.13;;
11809;SDS011;5962;41.566;23.734;2023-12-07T06:28:24;32.10;;;15.23;;
11809;SDS011;5962;41.566;23.734;2023-12-07T06:30:53;32.60;;;16.17;;
11809;SDS011;5962;41.566;23.734;2023-12-07T06:33:23;33.90;;;18.60;;
11809;SDS011;5962;41.566;23.734;2023-12-07T06:35:52;31.13;;;18.93;;
11809;SDS011;5962;41.566;23.734;2023-12-07T06:38:20;32.40;;;17.73;;
11809;SDS011;5962;41.566;23.734;2023-12-07T06:40:48;31.57;;;17.93;;
11809;SDS011;5962;41.566;23.734;2023-12-07T06:43:17;40.93;;;22.87;;
11809;SDS011;5962;41.566;23.734;2023-12-07T06:45:46;39.17;;;22.00;;
11809;SDS011;5962;41.566;23.734;2023-12-07T06:48:15;41.87;;;24.07;;
11809;SDS011;5962;41.566;23.734;2023-12-07T06:50:43;40.33;;;22.97;;
11809;SDS011;5962;41.566;23.734;2023-12-07T06:53:11;37.80;;;23.63;;
11809;SDS011;5962;41.566;23.734;2023-12-07T06:55:39;42.87;;;25.07;;
11809;SDS011;5962;41.566;23.734;2023-12-07T06:58:10;36.37;;;22.83;;
11809;SDS011;5962;41.566;23.734;2023-12-07T07:00:39;43.30;;;24.03;;
11809;SDS011;5962;41.566;23.734;2023-12-07T07:03:08;30.70;;;20.73;;
11809;SDS011;5962;41.566;23.734;2023-12-07T07:05:37;32.50;;;20.63;;
11809;SDS011;5962;41.566;23.734;2023-12-07T07:08:06;38.17;;;22.23;;
11809;SDS011;5962;41.566;23.734;2023-12-07T07:10:35;34.30;;;21.40;;
11809;SDS011;5962;41.566;23.734;2023-12-07T07:13:03;37.47;;;22.90;;
11809;SDS011;5962;41.566;23.734;2023-12-07T07:15:32;43.97;;;24.93;;
11809;SDS011;5962;41.566;23.734;2023-12-07T07:18:00;36.90;;;22.57;;
11809;SDS011;5962;41.566;23.734;2023-12-07T07:20:30;41.50;;;25.47;;
11809;SDS011;5962;41.566;23.734;2023-12-07T07:22:59;37.63;;;23.60;;
11809;SDS011;5962;41.566;23.734;2023-12-07T07:25:27;34.97;;;23.27;;
11809;SDS011;5962;41.566;23.734;2023-12-07T07:27:55;40.07;;;24.03;;
11809;SDS011;5962;41.566;23.734;2023-12-07T07:30:23;41.17;;;24.20;;
11809;SDS011;5962;41.566;23.734;2023-12-07T07:32:53;38.43;;;25.23;;
11809;SDS011;5962;41.566;23.734;2023-12-07T07:35:21;39.30;;;25.77;;
11809;SDS011;5962;41.566;23.734;2023-12-07T07:37:51;44.43;;;26.87;;
11809;SDS011;5962;41.566;23.734;2023-12-07T07:40:20;39.70;;;25.33;;
11809;SDS011;5962;41.566;23.734;2023-12-07T07:42:48;40.90;;;25.60;;
11809;SDS011;5962;41.566;23.734;2023-12-07T07:45:17;35.80;;;22.93;;
11809;SDS011;5962;41.566;23.734;2023-12-07T07:47:45;43.70;;;22.43;;
11809;SDS011;5962;41.566;23.734;2023-12-07T07:50:13;34.27;;;20.90;;
11809;SDS011;5962;41.566;23.734;2023-12-07T07:52:43;31.30;;;20.30;;
11809;SDS011;5962;41.566;23.734;2023-12-07T07:55:12;34.87;;;20.30;;
11809;SDS011;5962;41.566;23.734;2023-12-07T07:57:41;33.30;;;20.77;;
11809;SDS011;5962;41.566;23.734;2023-12-07T08:00:10;26.97;;;17.27;;
11809;SDS011;5962;41.566;23.734;2023-12-07T08:02:40;39.70;;;22.53;;
11809;SDS011;5962;41.566;23.734;2023-12-07T08:05:08;57.83;;;21.93;;
11809;SDS011;5962;41.566;23.734;2023-12-07T08:07:37;45.03;;;21.77;;
11809;SDS011;5962;41.566;23.734;2023-12-07T08:10:07;65.93;;;26.97;;
11809;SDS011;5962;41.566;23.734;2023-12-07T08:12:37;61.53;;;21.70;;
11809;SDS011;5962;41.566;23.734;2023-12-07T08:15:07;48.03;;;21.03;;
11809;SDS011;5962;41.566;23.734;2023-12-07T08:17:37;32.10;;;19.13;;
11809;SDS011;5962;41.566;23.734;2023-12-07T08:20:07;151.73;;;24.17;;
11809;SDS011;5962;41.566;23.734;2023-12-07T08:22:37;81.60;;;22.10;;
11809;SDS011;5962;41.566;23.734;2023-12-07T08:25:05;41.40;;;20.50;;
11809;SDS011;5962;41.566;23.734;2023-12-07T08:27:38;46.80;;;22.10;;
11809;SDS011;5962;41.566;23.734;2023-12-07T08:30:07;35.67;;;20.60;;
11809;SDS011;5962;41.566;23.734;2023-12-07T08:32:36;46.50;;;20.57;;
11809;SDS011;5962;41.566;23.734;2023-12-07T08:35:05;33.97;;;19.30;;
11809;SDS011;5962;41.566;23.734;2023-12-07T08:37:34;31.00;;;18.83;;
11809;SDS011;5962;41.566;23.734;2023-12-07T08:40:05;27.60;;;18.23;;
11809;SDS011;5962;41.566;23.734;2023-12-07T08:42:37;29.63;;;17.37;;
11809;SDS011;5962;41.566;23.734;2023-12-07T08:45:06;40.40;;;18.57;;
11809;SDS011;5962;41.566;23.734;2023-12-07T08:47:35;34.33;;;17.80;;
11809;SDS011;5962;41.566;23.734;2023-12-07T08:50:04;40.13;;;20.37;;
11809;SDS011;5962;41.566;23.734;2023-12-07T08:52:34;33.67;;;19.27;;
11809;SDS011;5962;41.566;23.734;2023-12-07T08:55:05;37.07;;;20.30;;
11809;SDS011;5962;41.566;23.734;2023-12-07T08:57:34;36.20;;;20.30;;
11809;SDS011;5962;41.566;23.734;2023-12-07T09:00:04;47.83;;;22.30;;
11809;SDS011;5962;41.566;23.734;2023-12-07T09:02:34;34.03;;;20.77;;
11809;SDS011;5962;41.566;23.734;2023-12-07T09:05:03;33.97;;;20.90;;
11809;SDS011;5962;41.566;23.734;2023-12-07T09:07:32;33.27;;;20.60;;
11809;SDS011;5962;41.566;23.734;2023-12-07T09:10:00;37.17;;;23.63;;
11809;SDS011;5962;41.566;23.734;2023-12-07T09:12:29;38.47;;;22.70;;
11809;SDS011;5962;41.566;23.734;2023-12-07T09:15:00;34.50;;;18.70;;
11809;SDS011;5962;41.566;23.734;2023-12-07T09:17:29;31.37;;;19.27;;
11809;SDS011;5962;41.566;23.734;2023-12-07T09:19:58;38.00;;;18.37;;
11809;SDS011;5962;41.566;23.734;2023-12-07T09:22:27;30.00;;;18.53;;
11809;SDS011;5962;41.566;23.734;2023-12-07T09:24:57;28.67;;;18.43;;
11809;SDS011;5962;41.566;23.734;2023-12-07T09:27:25;30.70;;;17.23;;
11809;SDS011;5962;41.566;23.734;2023-12-07T09:29:53;24.00;;;16.00;;
11809;SDS011;5962;41.566;23.734;2023-12-07T09:32:22;25.33;;;16.07;;
11809;SDS011;5962;41.566;23.734;2023-12-07T09:34:53;26.97;;;16.00;;
11809;SDS011;5962;41.566;23.734;2023-12-07T09:37:22;25.37;;;14.67;;
11809;SDS011;5962;41.566;23.734;2023-12-07T09:39:50;19.30;;;14.43;;
11809;SDS011;5962;41.566;23.734;2023-12-07T09:42:19;25.27;;;17.47;;
11809;SDS011;5962;41.566;23.734;2023-12-07T09:44:48;29.33;;;17.83;;
11809;SDS011;5962;41.566;23.734;2023-12-07T09:47:16;27.33;;;17.50;;
11809;SDS011;5962;41.566;23.734;2023-12-07T09:49:47;32.97;;;17.90;;
11809;SDS011;5962;41.566;23.734;2023-12-07T09:52:17;25.27;;;15.73;;
11809;SDS011;5962;41.566;23.734;2023-12-07T09:54:49;30.40;;;15.47;;
11809;SDS011;5962;41.566;23.734;2023-12-07T09:57:19;63.43;;;21.53;;
11809;SDS011;5962;41.566;23.734;2023-12-07T09:59:48;24.93;;;14.63;;
11809;SDS011;5962;41.566;23.734;2023-12-07T10:02:16;26.60;;;15.17;;
11809;SDS011;5962;41.566;23.734;2023-12-07T10:04:45;26.33;;;15.40;;
11809;SDS011;5962;41.566;23.734;2023-12-07T10:07:14;20.87;;;14.30;;
11809;SDS011;5962;41.566;23.734;2023-12-07T10:09:44;25.17;;;16.20;;
11809;SDS011;5962;41.566;23.734;2023-12-07T10:12:12;21.77;;;14.27;;
11809;SDS011;5962;41.566;23.734;2023-12-07T10:14:40;19.70;;;14.97;;
11809;SDS011;5962;41.566;23.734;2023-12-07T10:17:09;21.27;;;15.07;;
11809;SDS011;5962;41.566;23.734;2023-12-07T10:19:37;19.73;;;15.00;;
11809;SDS011;5962;41.566;23.734;2023-12-07T10:22:13;21.40;;;15.23;;
11809;SDS011;5962;41.566;23.734;2023-12-07T10:24:41;20.43;;;14.13;;
11809;SDS011;5962;41.566;23.734;2023-12-07T10:27:11;22.87;;;15.37;;
11809;SDS011;5962;41.566;23.734;2023-12-07T10:29:40;26.23;;;14.90;;
11809;SDS011;5962;41.566;23.734;2023-12-07T10:32:10;25.13;;;15.77;;
11809;SDS011;5962;41.566;23.734;2023-12-07T10:34:38;24.87;;;15.87;;
11809;SDS011;5962;41.566;23.734;2023-12-07T10:37:06;23.00;;;15.90;;
11809;SDS011;5962;41.566;23.734;2023-12-07T10:39:35;23.93;;;16.03;;
11809;SDS011;5962;41.566;23.734;2023-12-07T10:42:04;22.10;;;16.60;;
11809;SDS011;5962;41.566;23.734;2023-12-07T10:44:41;24.30;;;16.87;;
11809;SDS011;5962;41.566;23.734;2023-12-07T10:47:10;22.40;;;13.90;;
11809;SDS011;5962;41.566;23.734;2023-12-07T10:49:40;22.07;;;15.03;;
11809;SDS011;5962;41.566;23.734;2023-12-07T10:52:12;22.53;;;15.27;;
11809;SDS011;5962;41.566;23.734;2023-12-07T10:54:46;22.50;;;15.30;;
11809;SDS011;5962;41.566;23.734;2023-12-07T10:57:18;20.70;;;14.57;;
11809;SDS011;5962;41.566;23.734;2023-12-07T10:59:50;23.20;;;15.17;;
11809;SDS011;5962;41.566;23.734;2023-12-07T11:02:22;24.87;;;16.10;;
11809;SDS011;5962;41.566;23.734;2023-12-07T11:04:52;24.47;;;15.07;;
11809;SDS011;5962;41.566;23.734;2023-12-07T11:07:24;23.87;;;15.13;;
11809;SDS011;5962;41.566;23.734;2023-12-07T11:09:57;23.47;;;15.73;;
11809;SDS011;5962;41.566;23.734;2023-12-07T11:12:33;21.10;;;14.87;;
11809;SDS011;5962;41.566;23.734;2023-12-07T11:15:09;22.57;;;16.03;;
11809;SDS011;5962;41.566;23.734;2023-12-07T11:17:49;20.57;;;14.93;;
11809;SDS011;5962;41.566;23.734;2023-12-07T11:20:20;26.47;;;17.07;;
11809;SDS011;5962;41.566;23.734;2023-12-07T11:22:49;23.77;;;16.53;;
11809;SDS011;5962;41.566;23.734;2023-12-07T11:25:18;24.73;;;15.83;;
11809;SDS011;5962;41.566;23.734;2023-12-07T11:27:47;22.80;;;15.70;;
11809;SDS011;5962;41.566;23.734;2023-12-07T11:30:28;29.37;;;16.70;;
11809;SDS011;5962;41.566;23.734;2023-12-07T11:32:59;26.93;;;18.20;;
11809;SDS011;5962;41.566;23.734;2023-12-07T11:35:27;28.20;;;18.53;;
11809;SDS011;5962;41.566;23.734;2023-12-07T11:38:05;24.97;;;15.57;;
11809;SDS011;5962;41.566;23.734;2023-12-07T11:40:35;25.27;;;15.90;;
11809;SDS011;5962;41.566;23.734;2023-12-07T11:43:04;22.47;;;16.33;;
11809;SDS011;5962;41.566;23.734;2023-12-07T11:45:40;23.00;;;15.90;;
11809;SDS011;5962;41.566;23.734;2023-12-07T11:48:10;23.33;;;15.20;;
11809;SDS011;5962;41.566;23.734;2023-12-07T11:50:56;23.50;;;15.93;;
11809;SDS011;5962;41.566;23.734;2023-12-07T11:53:26;21.10;;;15.00;;
11809;SDS011;5962;41.566;23.734;2023-12-07T11:55:56;20.87;;;14.90;;
11809;SDS011;5962;41.566;23.734;2023-12-07T11:58:25;24.83;;;15.70;;
11809;SDS011;5962;41.566;23.734;2023-12-07T12:00:55;21.27;;;15.07;;
11809;SDS011;5962;41.566;23.734;2023-12-07T12:03:25;22.57;;;15.33;;
11809;SDS011;5962;41.566;23.734;2023-12-07T12:05:54;19.27;;;14.73;;
11809;SDS011;5962;41.566;23.734;2023-12-07T12:08:23;20.63;;;15.30;;
11809;SDS011;5962;41.566;23.734;2023-12-07T12:10:52;25.47;;;16.60;;
11809;SDS011;5962;41.566;23.734;2023-12-07T12:13:26;24.17;;;16.13;;
11809;SDS011;5962;41.566;23.734;2023-12-07T12:15:57;22.57;;;15.87;;
11809;SDS011;5962;41.566;23.734;2023-12-07T12:18:26;39.23;;;17.27;;
11809;SDS011;5962;41.566;23.734;2023-12-07T12:20:55;29.20;;;16.23;;
11809;SDS011;5962;41.566;23.734;2023-12-07T12:23:25;20.37;;;14.10;;
11809;SDS011;5962;41.566;23.734;2023-12-07T12:25:55;23.10;;;15.70;;
11809;SDS011;5962;41.566;23.734;2023-12-07T12:28:24;21.37;;;13.87;;
11809;SDS011;5962;41.566;23.734;2023-12-07T12:30:54;19.07;;;12.77;;
11809;SDS011;5962;41.566;23.734;2023-12-07T12:33:24;20.03;;;12.97;;
11809;SDS011;5962;41.566;23.734;2023-12-07T12:36:00;19.67;;;13.63;;
11809;SDS011;5962;41.566;23.734;2023-12-07T12:38:30;18.37;;;13.30;;
11809;SDS011;5962;41.566;23.734;2023-12-07T12:41:00;19.73;;;14.13;;
11809;SDS011;5962;41.566;23.734;2023-12-07T12:43:30;21.53;;;14.87;;
11809;SDS011;5962;41.566;23.734;2023-12-07T12:45:59;20.87;;;14.57;;
11809;SDS011;5962;41.566;23.734;2023-12-07T12:48:29;18.00;;;13.97;;
11809;SDS011;5962;41.566;23.734;2023-12-07T12:50:57;22.17;;;15.33;;
11809;SDS011;5962;41.566;23.734;2023-12-07T12:53:26;20.87;;;15.63;;
11809;SDS011;5962;41.566;23.734;2023-12-07T12:55:55;20.90;;;14.37;;
11809;SDS011;5962;41.566;23.734;2023-12-07T12:58:24;22.03;;;14.90;;
11809;SDS011;5962;41.566;23.734;2023-12-07T13:00:52;22.47;;;15.37;;
11809;SDS011;5962;41.566;23.734;2023-12-07T13:03:21;21.87;;;14.83;;
11809;SDS011;5962;41.566;23.734;2023-12-07T13:05:50;23.10;;;15.47;;
11809;SDS011;5962;41.566;23.734;2023-12-07T13:08:19;25.93;;;16.27;;
11809;SDS011;5962;41.566;23.734;2023-12-07T13:10:48;29.50;;;16.80;;
11809;SDS011;5962;41.566;23.734;2023-12-07T13:13:17;22.00;;;15.27;;
11809;SDS011;5962;41.566;23.734;2023-12-07T13:15:45;20.63;;;14.67;;
11809;SDS011;5962;41.566;23.734;2023-12-07T13:18:13;21.57;;;16.10;;
11809;SDS011;5962;41.566;23.734;2023-12-07T13:20:41;22.87;;;14.80;;
11809;SDS011;5962;41.566;23.734;2023-12-07T13:23:12;19.57;;;14.50;;
11809;SDS011;5962;41.566;23.734;2023-12-07T13:25:40;23.07;;;17.20;;
11809;SDS011;5962;41.566;23.734;2023-12-07T13:28:08;23.43;;;16.70;;
11809;SDS011;5962;41.566;23.734;2023-12-07T13:30:37;30.37;;;17.53;;
11809;SDS011;5962;41.566;23.734;2023-12-07T13:33:05;23.40;;;15.60;;
11809;SDS011;5962;41.566;23.734;2023-12-07T13:35:38;26.43;;;16.60;;
11809;SDS011;5962;41.566;23.734;2023-12-07T13:38:07;26.83;;;17.20;;
11809;SDS011;5962;41.566;23.734;2023-12-07T13:40:36;28.83;;;16.50;;
11809;SDS011;5962;41.566;23.734;2023-12-07T13:43:05;27.07;;;16.23;;
11809;SDS011;5962;41.566;23.734;2023-12-07T13:45:34;22.03;;;16.17;;
11809;SDS011;5962;41.566;23.734;2023-12-07T13:48:02;23.17;;;16.27;;
11809;SDS011;5962;41.566;23.734;2023-12-07T13:50:31;23.33;;;16.37;;
11809;SDS011;5962;41.566;23.734;2023-12-07T13:52:59;24.47;;;15.93;;
11809;SDS011;5962;41.566;23.734;2023-12-07T13:55:27;26.07;;;16.33;;
11809;SDS011;5962;41.566;23.734;2023-12-07T13:57:57;23.63;;;15.60;;
11809;SDS011;5962;41.566;23.734;2023-12-07T14:00:26;23.77;;;16.40;;
11809;SDS011;5962;41.566;23.734;2023-12-07T14:02:54;23.60;;;17.30;;
11809;SDS011;5962;41.566;23.734;2023-12-07T14:05:23;23.63;;;17.10;;
11809;SDS011;5962;41.566;23.734;2023-12-07T14:07:51;24.37;;;16.67;;
11809;SDS011;5962;41.566;23.734;2023-12-07T14:10:19;25.70;;;17.87;;
11809;SDS011;5962;41.566;23.734;2023-12-07T14:12:48;36.83;;;18.67;;
11809;SDS011;5962;41.566;23.734;2023-12-07T14:15:18;29.17;;;19.87;;
11809;SDS011;5962;41.566;23.734;2023-12-07T14:17:48;31.10;;;19.17;;
11809;SDS011;5962;41.566;23.734;2023-12-07T14:20:18;28.40;;;18.73;;
11809;SDS011;5962;41.566;23.734;2023-12-07T14:22:52;33.50;;;19.70;;
11809;SDS011;5962;41.566;23.734;2023-12-07T14:25:21;29.27;;;19.03;;
11809;SDS011;5962;41.566;23.734;2023-12-07T14:27:49;25.57;;;17.60;;
11809;SDS011;5962;41.566;23.734;2023-12-07T14:30:19;26.67;;;18.70;;
11809;SDS011;5962;41.566;23.734;2023-12-07T14:32:48;29.97;;;17.53;;
11809;SDS011;5962;41.566;23.734;2023-12-07T14:35:19;27.43;;;19.10;;